Lakeville, IN (46536)

7:55 PM EDT on August 24, 2016 (GMT -0400)
North side,Potato Creek State Park | | Change Station
Active Advisory: Flood Warning

Elev 807 ft 41.57 °N, 86.35 °W | Updated 5 minutes ago

Overcast
Overcast
76.6 °F
Feels Like 77 °F
N
0.0
Wind Variable Wind from SSW

Today
High -- | Low -- °F
--% Chance of Precip.
Yesterday
High -- | Low -- °F
Precip. -- in
Pressure 29.94 in
Visibility 10.0 miles
Clouds Mostly Cloudy 5500 ft
Overcast 7000 ft
Heat Index 77 °F
Dew Point 74 °F
Humidity 91%
Rainfall 0.09 in
Snow Depth Not available.
7:03 AM 8:30 PM
Waning Gibbous, 52% visible
METAR KSBN 242254Z 23008KT 10SM BKN055 OVC070 25/22 A2995 RMK AO2 RAB26E52 SLP137 P0000 T02500217
Pressure 29.94 in
Visibility 10.0 miles
Clouds Mostly Cloudy 5500 ft
Overcast 7000 ft
Heat Index 77 °F
Dew Point 74 °F
Humidity 91%
Rainfall 0.09 in
Snow Depth Not available.
7:03 AM 8:30 PM
Waning Gibbous, 52% visible
METAR KSBN 242254Z 23008KT 10SM BKN055 OVC070 25/22 A2995 RMK AO2 RAB26E52 SLP137 P0000 T02500217

10-Day Weather Forecast

Almanac

Astronomy

Aug. 24, 2016 Rise Set
Actual Time
Civil Twilight
Nautical Twilight
Astronomical Twilight
Moon
Length of Visible Light
Length of Day
Tomorrow will be .
, % of the Moon is Illuminated

Today's Extremes

State Highs State Lows

Community

WunderPhotos

Upload Photos

1,934,739 photos uploaded!

WunderBlog® & News

Nearby

Air Quality

  Air Quality AQ Index Pollutant
Not available.

Snow Depth

Station Depth Elevation

Earthquake Activity

City Distance Mag. Time & Date
Minimum magnitude displayed is 2.5.

Coastal Water Temperatures

Place Temperature

Stations

Nearby Weather Stations

Station Location Temp. Windchill Dew Point Humidity Wind Precip. Elev Updated Type
                   

Watches & Warnings

Flood Warning
Issued: 11:04 AM CDT Aug. 24, 2016 – National Weather Service

the Flood Warning has been extended for
the Kankakee River at Davis
* until Monday afternoon.
* At 10 am Wednesday the stage was 11.6 feet and steady.
* Minor flooding is occurring and minor flooding is forecast.
* Flood stage is 10.0 feet.
* Forecast... the river will fall below the 10.0 foot flood stage
around 1 PM Sunday August 28.
* At 11.0 feet... flooding of secondary roads near the river begins.


Lat... Lon 4145 8667 4144 8661 4130 8673 4131 8679
      4143 8670